Time;durP1;ratioP1;P1;durP2;ratioP2;P2;SDS_P1;SDS_P2;PMS_P1;PMS_P2;Temp;Humidity;BMP_temperature;BMP_pressure;BME280_temperature;BME280_humidity;BME280_pressure;Samples;Min_cycle;Max_cycle;Signal;HPM_P1;HPM_P2
2022/10/14 00:01:47;;;;;;;20.10;11.40;;;14.30;99.90;;;;;;5098985;28;20137;-76
2022/10/14 00:04:14;;;;;;;80.40;19.02;;;14.30;99.90;;;;;;5098679;28;20443;-76
2022/10/14 00:06:40;;;;;;;54.05;19.00;;;14.30;99.90;;;;;;5117008;28;20333;-76
2022/10/14 00:09:08;;;;;;;31.20;18.90;;;14.30;99.90;;;;;;5081974;28;20040;-76
2022/10/14 00:11:35;;;;;;;40.00;21.15;;;14.40;99.90;;;;;;5081584;28;20040;-76
2022/10/14 00:14:11;;;;;;;116.25;33.45;;;14.40;99.90;;;;;;5098689;28;20040;-77
2022/10/14 00:16:38;;;;;;;100.35;29.40;;;14.50;99.90;;;;;;5081650;28;20039;-77
2022/10/14 00:19:05;;;;;;;339.85;42.67;;;14.50;99.90;;;;;;5081747;28;20052;-77
2022/10/14 00:21:31;;;;;;;401.67;46.50;;;14.40;99.90;;;;;;5098520;28;20425;-76
2022/10/14 00:23:57;;;;;;;247.95;36.10;;;14.30;99.90;;;;;;5098704;28;20390;-76
2022/10/14 00:26:32;;;;;;;270.67;38.55;;;14.10;99.90;;;;;;5101135;28;20328;-76
2022/10/14 00:28:59;;;;;;;135.38;33.83;;;14.10;99.90;;;;;;5102388;28;20050;-76
2022/10/14 00:31:26;;;;;;;531.85;53.47;;;14.10;99.90;;;;;;5102376;28;20039;-76
2022/10/14 00:33:52;;;;;;;461.65;49.60;;;14.20;99.90;;;;;;5102542;28;20062;-76
2022/10/14 00:36:20;;;;;;;171.20;34.13;;;14.00;99.90;;;;;;5102580;28;20424;-77
2022/10/14 00:38:47;;;;;;;336.38;40.25;;;13.90;99.90;;;;;;5102486;28;20047;-76
2022/10/14 00:41:19;;;;;;;416.80;43.75;;;13.80;99.90;;;;;;5085423;28;20494;-76
2022/10/14 00:43:55;;;;;;;288.77;34.95;;;13.70;99.90;;;;;;5085539;28;20075;-76
2022/10/14 00:46:22;;;;;;;125.90;28.77;;;13.40;99.90;;;;;;5102432;28;20043;-76
2022/10/14 00:48:48;;;;;;;166.43;31.58;;;13.30;99.90;;;;;;5068567;28;20048;-76
2022/10/14 00:51:14;;;;;;;357.90;43.60;;;13.40;99.90;;;;;;5085168;28;20108;-76
2022/10/14 00:53:42;;;;;;;140.75;30.67;;;13.60;99.90;;;;;;5102195;28;20043;-76
2022/10/14 00:56:09;;;;;;;77.95;26.60;;;13.70;99.90;;;;;;5119861;28;20040;-77
2022/10/14 00:58:35;;;;;;;55.28;23.45;;;13.90;99.90;;;;;;5120238;28;20084;-76
2022/10/14 01:01:01;;;;;;;81.15;23.23;;;14.00;99.90;;;;;;5068350;28;20040;-76
2022/10/14 01:03:27;;;;;;;124.40;26.00;;;14.00;99.90;;;;;;5085240;28;20046;-76
2022/10/14 01:06:21;;;;;;;31.45;20.88;;;14.00;99.90;;;;;;5085148;28;20036;-76
2022/10/14 01:09:05;;;;;;;198.75;32.67;;;13.90;99.90;;;;;;5101981;28;20039;-76
2022/10/14 01:12:06;;;;;;;57.92;20.27;;;13.90;99.90;;;;;;5084662;28;20052;-76
2022/10/14 01:14:42;;;;;;;44.22;19.52;;;13.80;99.90;;;;;;5084501;28;20046;-77
2022/10/14 01:17:32;;;;;;;91.90;22.17;;;13.80;99.90;;;;;;5101591;28;20090;-77
2022/10/14 01:20:21;;;;;;;34.67;17.90;;;13.90;99.90;;;;;;5084600;28;20040;-76
2022/10/14 01:23:19;;;;;;;27.95;17.27;;;13.70;99.90;;;;;;5101433;28;20046;-76
2022/10/14 01:26:05;;;;;;;32.55;16.73;;;13.70;99.90;;;;;;5101373;28;20040;-77
2022/10/14 01:28:59;;;;;;;24.63;15.57;;;13.70;99.90;;;;;;5083704;28;20047;-77
2022/10/14 01:31:30;;;;;;;23.25;15.70;;;13.70;99.90;;;;;;5084311;28;20042;-76
2022/10/14 01:33:59;;;;;;;24.45;15.32;;;13.70;99.90;;;;;;5101480;28;20103;-77
2022/10/14 01:36:36;;;;;;;29.05;16.20;;;13.70;99.90;;;;;;5100862;28;20035;-76
2022/10/14 01:39:19;;;;;;;42.80;16.55;;;13.80;99.90;;;;;;5119138;28;20413;-77
2022/10/14 01:41:51;;;;;;;35.83;17.13;;;13.80;99.90;;;;;;5101407;28;20374;-76
2022/10/14 01:44:20;;;;;;;33.22;15.60;;;13.80;99.90;;;;;;5119360;28;20092;-76
2022/10/14 01:46:53;;;;;;;52.83;15.65;;;13.80;99.90;;;;;;5119362;28;20120;-77
2022/10/14 01:49:28;;;;;;;21.52;14.30;;;13.70;99.90;;;;;;5100992;28;20040;-76
2022/10/14 01:52:26;;;;;;;36.17;15.10;;;13.60;99.90;;;;;;5100777;28;20085;-76
2022/10/14 01:54:56;;;;;;;17.50;11.52;;;13.60;99.90;;;;;;5079686;28;20083;-76
2022/10/14 01:57:26;;;;;;;88.38;15.05;;;13.60;99.90;;;;;;5100705;28;20067;-76
2022/10/14 01:59:53;;;;;;;16.10;11.20;;;13.50;99.90;;;;;;5100983;28;20112;-77
2022/10/14 02:02:19;;;;;;;56.88;14.02;;;13.60;99.90;;;;;;5084101;28;20053;-76
2022/10/14 02:04:45;;;;;;;54.45;12.23;;;13.60;99.90;;;;;;5118693;28;20035;-76
2022/10/14 02:07:19;;;;;;;20.30;11.90;;;13.50;99.90;;;;;;5083645;28;20122;-76
2022/10/14 02:10:22;;;;;;;43.47;12.52;;;13.40;99.90;;;;;;5100801;28;20104;-77
2022/10/14 02:13:14;;;;;;;19.27;11.55;;;13.50;99.90;;;;;;5083535;28;20044;-77
2022/10/14 02:15:54;;;;;;;89.32;13.93;;;13.50;99.90;;;;;;5066497;28;20175;-77
2022/10/14 02:18:42;;;;;;;43.70;12.63;;;13.50;99.90;;;;;;5096871;28;20417;-77
2022/10/14 02:21:23;;;;;;;27.38;10.25;;;13.50;99.90;;;;;;5080319;28;20109;-76
2022/10/14 02:23:56;;;;;;;26.90;10.20;;;13.40;99.90;;;;;;5096881;28;20496;-76
2022/10/14 02:26:23;;;;;;;36.78;10.57;;;13.50;99.90;;;;;;5079567;28;20097;-77
2022/10/14 02:28:50;;;;;;;33.85;10.10;;;13.50;99.90;;;;;;5079970;28;20436;-77
2022/10/14 02:31:17;;;;;;;103.72;13.60;;;13.50;99.90;;;;;;5063080;28;20044;-76
2022/10/14 02:33:49;;;;;;;140.68;15.27;;;13.50;99.90;;;;;;5096847;28;20418;-76
2022/10/14 02:36:18;;;;;;;32.65;10.07;;;13.50;99.90;;;;;;5096634;28;20097;-77
2022/10/14 02:38:46;;;;;;;37.38;10.80;;;13.50;99.90;;;;;;5079660;28;20044;-76
2022/10/14 02:41:18;;;;;;;57.67;11.35;;;13.50;99.90;;;;;;5063196;28;20043;-76
2022/10/14 02:43:45;;;;;;;12.63;8.95;;;13.50;99.90;;;;;;5096559;28;20039;-76
2022/10/14 02:46:10;;;;;;;19.25;9.82;;;13.40;99.90;;;;;;5079532;28;20085;-76
2022/10/14 02:48:37;;;;;;;66.93;10.77;;;13.30;99.90;;;;;;5062172;28;20039;-77
2022/10/14 02:51:02;;;;;;;20.05;9.30;;;13.40;99.90;;;;;;5096364;28;20048;-76
2022/10/14 02:53:29;;;;;;;37.80;8.80;;;13.40;99.90;;;;;;5096296;28;20051;-76
2022/10/14 02:55:55;;;;;;;32.63;8.85;;;13.50;99.90;;;;;;5079585;28;20314;-76
2022/10/14 02:58:21;;;;;;;32.83;8.77;;;13.30;99.90;;;;;;5062468;28;20043;-76
2022/10/14 03:00:48;;;;;;;18.05;7.97;;;13.20;99.90;;;;;;5097201;28;20039;-76
2022/10/14 03:03:14;;;;;;;26.35;8.07;;;13.20;99.90;;;;;;5079280;28;20051;-77
2022/10/14 03:05:40;;;;;;;14.32;7.60;;;13.20;99.90;;;;;;5062853;28;20040;-76
2022/10/14 03:08:05;;;;;;;9.90;7.80;;;13.30;99.90;;;;;;5079158;28;20054;-77
2022/10/14 03:10:31;;;;;;;109.65;11.35;;;13.30;99.90;;;;;;5096207;28;20099;-77
2022/10/14 03:12:57;;;;;;;17.30;7.47;;;13.30;99.90;;;;;;5095998;28;20051;-76
2022/10/14 03:15:22;;;;;;;34.75;8.52;;;13.30;99.90;;;;;;5096208;28;20326;-77
2022/10/14 03:17:48;;;;;;;16.40;7.63;;;13.20;99.90;;;;;;5095826;28;20337;-77
2022/10/14 03:20:14;;;;;;;10.80;7.85;;;13.10;99.90;;;;;;5096116;28;20050;-76
2022/10/14 03:22:41;;;;;;;16.35;6.65;;;12.90;99.90;;;;;;5079322;28;20307;-76
2022/10/14 03:25:07;;;;;;;16.02;7.03;;;12.80;99.90;;;;;;5079491;28;20032;-77
2022/10/14 03:27:33;;;;;;;14.55;7.30;;;12.80;99.90;;;;;;5095352;28;20378;-76
2022/10/14 03:29:58;;;;;;;30.17;8.13;;;12.80;99.90;;;;;;5095604;28;20134;-76
2022/10/14 03:32:24;;;;;;;17.25;7.50;;;12.80;99.90;;;;;;5096040;28;20098;-76
2022/10/14 03:34:49;;;;;;;36.78;8.57;;;12.80;99.90;;;;;;5096002;28;20039;-77
2022/10/14 03:37:15;;;;;;;28.92;8.65;;;12.90;99.90;;;;;;5062156;28;20047;-76
2022/10/14 03:39:41;;;;;;;28.48;9.52;;;13.00;99.90;;;;;;5078808;28;20040;-76
2022/10/14 03:42:06;;;;;;;21.23;7.85;;;13.10;99.90;;;;;;5095537;28;20044;-76
2022/10/14 03:44:32;;;;;;;22.15;8.95;;;13.20;99.90;;;;;;5062372;28;20100;-76
2022/10/14 03:46:58;;;;;;;28.13;8.73;;;12.90;99.90;;;;;;5062070;28;20044;-76
2022/10/14 03:49:23;;;;;;;17.73;7.57;;;12.90;99.90;;;;;;5095478;28;20090;-76
2022/10/14 03:51:49;;;;;;;12.13;7.53;;;13.00;99.90;;;;;;5078655;28;20044;-76
2022/10/14 03:54:15;;;;;;;20.20;7.28;;;13.10;99.90;;;;;;5096759;28;20032;-76
2022/10/14 03:56:40;;;;;;;19.17;7.78;;;13.10;99.90;;;;;;5061577;28;20441;-76
2022/10/14 03:59:06;;;;;;;12.00;7.63;;;13.10;99.90;;;;;;5097431;28;20072;-76
2022/10/14 04:01:32;;;;;;;14.02;7.70;;;12.90;99.90;;;;;;5082716;28;20090;-76
2022/10/14 04:03:58;;;;;;;21.05;9.32;;;13.00;99.90;;;;;;5100552;28;20040;-76
2022/10/14 04:06:23;;;;;;;23.35;9.52;;;13.10;99.90;;;;;;5082605;28;20051;-76
2022/10/14 04:08:49;;;;;;;16.15;8.65;;;13.20;99.90;;;;;;5099477;28;20044;-76
2022/10/14 04:11:16;;;;;;;12.27;8.30;;;13.30;99.90;;;;;;5082678;28;20043;-77
2022/10/14 04:13:42;;;;;;;22.42;8.95;;;13.20;99.90;;;;;;5099404;28;20050;-76
2022/10/14 04:16:11;;;;;;;16.48;9.40;;;13.30;99.90;;;;;;5099708;28;20036;-77
2022/10/14 04:18:37;;;;;;;14.73;9.48;;;13.30;99.90;;;;;;5099182;28;20417;-76
2022/10/14 04:21:07;;;;;;;130.07;17.75;;;13.30;99.90;;;;;;5082266;28;20119;-76
2022/10/14 04:23:33;;;;;;;14.68;9.23;;;13.30;99.90;;;;;;5082268;28;20093;-76
2022/10/14 04:26:03;;;;;;;84.75;13.63;;;13.20;99.90;;;;;;5099271;28;20424;-77
2022/10/14 04:28:28;;;;;;;43.58;12.23;;;13.10;99.90;;;;;;5098369;28;20043;-76
2022/10/14 04:30:54;;;;;;;18.63;9.60;;;13.00;99.90;;;;;;5065224;28;20040;-76
2022/10/14 04:33:20;;;;;;;18.83;10.10;;;13.00;99.90;;;;;;5081895;28;20048;-76
2022/10/14 04:35:45;;;;;;;22.42;10.48;;;13.00;99.90;;;;;;5098955;28;20040;-75
2022/10/14 04:38:11;;;;;;;26.45;11.98;;;13.10;99.90;;;;;;5098914;28;20118;-76
2022/10/14 04:40:37;;;;;;;35.00;11.65;;;13.00;99.90;;;;;;5081689;28;20425;-76
2022/10/14 04:43:02;;;;;;;17.15;10.02;;;13.00;99.90;;;;;;5098723;28;20048;-76
2022/10/14 04:45:28;;;;;;;20.70;10.50;;;13.00;99.90;;;;;;5098779;28;20043;-76
2022/10/14 04:47:53;;;;;;;37.88;11.70;;;13.10;99.90;;;;;;5098873;28;20115;-76
2022/10/14 04:50:19;;;;;;;50.63;11.05;;;13.00;99.90;;;;;;5098596;28;20072;-76
2022/10/14 04:52:45;;;;;;;15.27;8.70;;;12.90;99.90;;;;;;5100239;28;20036;-76
2022/10/14 04:55:11;;;;;;;41.50;8.32;;;12.90;99.90;;;;;;5081995;28;20040;-76
2022/10/14 04:57:39;;;;;;;25.60;8.60;;;12.80;99.90;;;;;;5098094;28;20422;-76
2022/10/14 05:00:05;;;;;;;20.77;8.02;;;12.80;99.90;;;;;;5098530;28;20090;-76
2022/10/14 05:02:31;;;;;;;75.88;10.57;;;12.80;99.90;;;;;;5098476;28;20047;-76
2022/10/14 05:04:56;;;;;;;69.15;10.02;;;12.80;99.90;;;;;;5099736;28;20036;-76
2022/10/14 05:07:22;;;;;;;127.72;13.85;;;12.80;99.90;;;;;;5098360;28;20042;-76
2022/10/14 05:09:48;;;;;;;19.42;9.10;;;12.80;99.90;;;;;;5098606;28;20036;-76
2022/10/14 05:12:13;;;;;;;21.65;8.63;;;12.70;99.90;;;;;;5097419;28;20044;-76
2022/10/14 05:14:39;;;;;;;30.65;8.80;;;12.70;99.90;;;;;;5064731;28;20094;-76
2022/10/14 05:17:05;;;;;;;17.38;8.27;;;12.60;99.90;;;;;;5105051;28;20051;-76
2022/10/14 05:19:31;;;;;;;34.88;9.05;;;12.70;99.90;;;;;;5101689;28;20047;-77
2022/10/14 05:21:56;;;;;;;24.38;8.98;;;12.70;99.90;;;;;;5084633;28;20126;-76
2022/10/14 05:24:22;;;;;;;25.05;10.13;;;12.70;99.90;;;;;;5067927;28;20095;-76
2022/10/14 05:26:48;;;;;;;53.40;10.30;;;12.80;99.90;;;;;;5119276;28;20048;-76
2022/10/14 05:29:13;;;;;;;114.45;13.15;;;12.80;99.90;;;;;;5101253;28;20044;-77
2022/10/14 05:31:39;;;;;;;28.65;9.88;;;12.90;99.90;;;;;;5067727;28;20071;-76
2022/10/14 05:34:05;;;;;;;32.58;11.00;;;12.90;99.90;;;;;;5101333;28;20040;-76
2022/10/14 05:36:31;;;;;;;24.08;10.32;;;12.90;99.90;;;;;;5101167;28;20408;-76
2022/10/14 05:38:57;;;;;;;50.47;11.55;;;13.00;99.90;;;;;;5084274;28;20043;-76
2022/10/14 05:41:26;;;;;;;26.13;11.18;;;12.90;99.90;;;;;;5101003;28;20084;-77
2022/10/14 05:43:52;;;;;;;24.98;10.75;;;12.90;99.90;;;;;;5101472;28;20032;-76
2022/10/14 05:46:18;;;;;;;25.45;10.60;;;13.00;99.90;;;;;;5084129;28;20047;-77
2022/10/14 05:48:44;;;;;;;24.33;10.77;;;13.10;99.90;;;;;;5084440;28;20043;-76
2022/10/14 05:51:09;;;;;;;21.85;10.98;;;13.20;99.90;;;;;;5083998;28;20050;-76
2022/10/14 05:53:38;;;;;;;25.17;11.02;;;13.20;99.90;;;;;;5084248;28;20130;-76
2022/10/14 05:56:05;;;;;;;29.67;11.05;;;13.10;99.90;;;;;;5084256;28;20050;-75
2022/10/14 05:58:31;;;;;;;22.70;10.30;;;13.20;99.90;;;;;;5100757;28;20437;-76
2022/10/14 06:01:01;;;;;;;28.45;11.35;;;13.30;99.90;;;;;;5100680;28;20124;-76
2022/10/14 06:03:27;;;;;;;34.25;11.68;;;13.20;99.90;;;;;;5067387;28;20366;-76
2022/10/14 06:05:52;;;;;;;24.27;10.85;;;13.20;99.90;;;;;;5100927;28;20328;-76
2022/10/14 06:08:19;;;;;;;24.80;11.52;;;13.10;99.90;;;;;;5100552;28;20044;-76
2022/10/14 06:10:44;;;;;;;29.60;11.27;;;13.10;99.90;;;;;;5083904;28;20093;-76
2022/10/14 06:13:10;;;;;;;26.02;11.93;;;13.20;99.90;;;;;;5083572;28;20421;-77
2022/10/14 06:15:36;;;;;;;23.20;11.23;;;13.20;99.90;;;;;;5100457;28;20066;-76
2022/10/14 06:18:01;;;;;;;32.75;11.52;;;13.20;99.90;;;;;;5066776;28;20051;-77
2022/10/14 06:20:27;;;;;;;38.75;12.48;;;13.00;99.90;;;;;;5100716;28;20328;-76
2022/10/14 06:22:53;;;;;;;39.63;13.18;;;12.90;99.90;;;;;;5099183;28;20050;-76
2022/10/14 06:25:18;;;;;;;54.33;14.02;;;12.70;99.90;;;;;;5050030;28;20039;-76
2022/10/14 06:27:44;;;;;;;32.15;13.13;;;12.80;99.90;;;;;;5117817;28;20035;-76
2022/10/14 06:30:10;;;;;;;34.65;12.63;;;13.00;99.90;;;;;;5100476;28;20040;-76
2022/10/14 06:32:36;;;;;;;64.78;15.00;;;13.00;99.90;;;;;;5118384;28;20075;-76
2022/10/14 06:35:02;;;;;;;78.30;17.70;;;13.00;99.90;;;;;;5066631;28;20078;-76
2022/10/14 06:37:27;;;;;;;82.00;16.05;;;12.90;99.90;;;;;;5083140;28;20188;-76
2022/10/14 06:39:53;;;;;;;36.58;13.68;;;12.90;99.90;;;;;;5117948;28;20040;-76
2022/10/14 06:42:19;;;;;;;51.72;14.63;;;12.90;99.90;;;;;;5100196;28;20126;-76
2022/10/14 06:44:44;;;;;;;92.25;16.35;;;12.90;99.90;;;;;;5117954;28;20038;-76
2022/10/14 06:47:10;;;;;;;43.28;14.75;;;12.90;99.90;;;;;;5100001;28;20417;-77
2022/10/14 06:49:36;;;;;;;41.88;14.52;;;13.00;99.90;;;;;;5118089;28;20420;-76
2022/10/14 06:52:02;;;;;;;115.95;18.27;;;13.00;99.90;;;;;;5099670;28;20044;-76
2022/10/14 06:54:27;;;;;;;72.18;17.52;;;13.00;99.90;;;;;;5082799;28;20127;-76
2022/10/14 06:56:53;;;;;;;52.28;16.65;;;13.00;99.90;;;;;;5049325;28;20865;-76
2022/10/14 06:59:19;;;;;;;72.15;17.00;;;13.10;99.90;;;;;;5099904;28;20413;-76
2022/10/14 07:01:44;;;;;;;91.10;18.05;;;13.20;99.90;;;;;;5082694;28;20440;-76
2022/10/14 07:04:10;;;;;;;63.25;18.23;;;13.20;99.90;;;;;;5082658;28;20096;-76
2022/10/14 07:06:37;;;;;;;80.13;18.67;;;13.20;99.90;;;;;;5082865;28;20135;-76
2022/10/14 07:09:03;;;;;;;52.38;17.63;;;13.20;99.90;;;;;;5099404;28;20417;-77
2022/10/14 07:11:29;;;;;;;44.17;16.00;;;13.20;99.90;;;;;;5082425;28;20088;-77
2022/10/14 07:13:55;;;;;;;74.70;18.40;;;13.30;99.90;;;;;;5099294;28;20027;-82
2022/10/14 07:16:21;;;;;;;61.67;17.60;;;13.40;99.90;;;;;;5082426;28;20036;-72
2022/10/14 07:18:47;;;;;;;80.47;19.67;;;13.50;99.90;;;;;;5099163;28;20063;-72
2022/10/14 07:21:13;;;;;;;61.83;18.90;;;13.50;99.90;;;;;;5117508;28;20132;-72
2022/10/14 07:23:39;;;;;;;65.18;18.83;;;13.50;99.90;;;;;;5117538;28;20039;-72
2022/10/14 07:26:05;;;;;;;49.78;18.35;;;13.50;99.90;;;;;;5117469;28;20035;-73
2022/10/14 07:28:32;;;;;;;61.78;19.30;;;13.50;99.90;;;;;;5117101;28;20325;-72
2022/10/14 07:31:07;;;;;;;59.78;18.92;;;13.70;99.90;;;;;;5117327;28;20050;-73
2022/10/14 07:33:35;;;;;;;61.20;19.45;;;13.60;99.90;;;;;;5117164;28;20036;-73
2022/10/14 07:36:04;;;;;;;56.55;18.33;;;13.70;99.90;;;;;;5116981;28;20039;-72
2022/10/14 07:38:30;;;;;;;68.97;20.30;;;13.80;99.90;;;;;;5118074;28;20081;-76
2022/10/14 07:41:04;;;;;;;56.50;20.27;;;13.70;99.90;;;;;;5118919;28;20123;-76
2022/10/14 07:43:32;;;;;;;54.35;19.45;;;13.70;99.90;;;;;;5099374;28;20038;-75
2022/10/14 07:46:03;;;;;;;58.63;19.70;;;13.80;99.90;;;;;;5117213;28;20050;-74
2022/10/14 07:48:31;;;;;;;50.95;19.65;;;13.70;99.90;;;;;;5117255;28;20046;-73
2022/10/14 07:50:57;;;;;;;60.20;21.88;;;13.80;99.90;;;;;;5098880;28;20337;-73
2022/10/14 07:53:24;;;;;;;54.58;19.80;;;13.80;99.90;;;;;;5116962;28;20035;-73
2022/10/14 07:55:53;;;;;;;57.85;20.55;;;13.90;99.90;;;;;;5099181;28;20313;-73
2022/10/14 07:58:21;;;;;;;53.45;19.92;;;13.80;99.90;;;;;;5116759;28;20040;-74
2022/10/14 08:00:48;;;;;;;55.22;21.10;;;13.80;99.90;;;;;;5082088;28;20054;-73
2022/10/14 08:03:15;;;;;;;105.75;25.20;;;13.90;99.90;;;;;;5098804;28;20079;-73
2022/10/14 08:05:41;;;;;;;58.70;21.85;;;14.00;99.90;;;;;;5117028;28;20047;-73
2022/10/14 08:08:07;;;;;;;68.80;22.42;;;14.00;99.90;;;;;;5117049;28;20035;-74
2022/10/14 08:10:34;;;;;;;58.55;21.40;;;14.10;99.90;;;;;;5098680;28;20050;-73
2022/10/14 08:13:00;;;;;;;49.25;20.52;;;14.10;99.90;;;;;;5117033;28;20043;-73
2022/10/14 08:15:28;;;;;;;71.43;22.98;;;14.20;99.90;;;;;;5115260;28;20035;-83
2022/10/14 08:17:54;;;;;;;55.88;21.58;;;14.20;99.90;;;;;;5101296;28;20071;-74
2022/10/14 08:20:20;;;;;;;50.67;21.05;;;14.20;99.90;;;;;;5106613;28;20105;-74
2022/10/14 08:22:46;;;;;;;54.55;21.52;;;14.20;99.90;;;;;;5116784;28;20039;-75
2022/10/14 08:25:11;;;;;;;66.05;23.02;;;14.30;99.90;;;;;;5116056;28;20044;-74
2022/10/14 08:27:37;;;;;;;51.20;21.67;;;14.30;99.90;;;;;;5115117;28;20420;-74
2022/10/14 08:30:04;;;;;;;57.85;21.73;;;14.20;99.90;;;;;;5098577;28;20040;-73
2022/10/14 08:32:30;;;;;;;58.55;22.50;;;14.30;99.90;;;;;;5098535;28;20047;-74
2022/10/14 08:34:55;;;;;;;58.72;22.70;;;14.40;99.90;;;;;;5116820;28;20042;-74
2022/10/14 08:37:22;;;;;;;45.50;20.30;;;14.30;99.90;;;;;;5098817;28;20035;-73
2022/10/14 08:39:47;;;;;;;48.17;21.30;;;14.30;99.90;;;;;;5116546;28;20043;-73
2022/10/14 08:42:34;;;;;;;45.38;21.35;;;14.30;99.90;;;;;;5116763;28;20122;-72
2022/10/14 08:45:15;;;;;;;53.22;22.35;;;14.50;99.90;;;;;;5116782;28;20044;-72
2022/10/14 08:47:44;;;;;;;44.63;20.90;;;14.40;99.90;;;;;;5101474;28;20039;-69
2022/10/14 08:50:25;;;;;;;45.53;20.00;;;14.40;99.90;;;;;;5120061;28;20485;-70
2022/10/14 08:53:05;;;;;;;50.83;22.38;;;14.40;99.90;;;;;;5120485;28;20078;-73
2022/10/14 08:55:41;;;;;;;47.00;21.17;;;14.60;99.90;;;;;;5120102;28;20443;-72
2022/10/14 08:58:14;;;;;;;51.17;22.05;;;14.60;99.90;;;;;;5119946;28;20035;-73
2022/10/14 09:00:42;;;;;;;41.80;20.25;;;14.70;99.90;;;;;;5120240;28;20079;-73
2022/10/14 09:03:21;;;;;;;49.00;21.17;;;14.80;99.90;;;;;;5121324;28;20518;-72
2022/10/14 09:05:57;;;;;;;40.92;20.15;;;14.70;99.90;;;;;;5102151;28;20325;-73
2022/10/14 09:08:29;;;;;;;;;;;14.70;99.90;;;;;;5102670;28;20083;-73
2022/10/14 09:11:03;;;;;;;47.03;20.98;;;14.70;99.90;;;;;;5120004;28;19958;-72
2022/10/14 09:13:35;;;;;;;57.03;23.27;;;14.70;99.90;;;;;;5120050;28;20035;-72
2022/10/14 09:16:07;;;;;;;46.50;20.58;;;14.70;99.90;;;;;;5101724;28;20075;-74
2022/10/14 09:18:40;;;;;;;39.35;20.05;;;14.70;99.90;;;;;;5119596;28;20381;-72
2022/10/14 09:21:44;;;;;;;61.78;23.35;;;14.80;99.90;;;;;;5101600;28;20057;-78
2022/10/14 09:24:18;;;;;;;55.70;24.60;;;14.80;99.90;;;;;;5114459;28;20406;-72
2022/10/14 09:26:47;;;;;;;40.67;20.27;;;14.80;99.90;;;;;;5119840;28;20149;-73
2022/10/14 09:29:50;;;;;;;50.75;21.67;;;14.70;99.90;;;;;;5119720;28;20048;-73
2022/10/14 09:32:39;;;;;;;55.70;23.05;;;14.80;99.90;;;;;;5084450;28;20043;-74
2022/10/14 09:35:14;;;;;;;35.17;16.58;;;14.90;99.90;;;;;;5101329;28;20032;-74
2022/10/14 09:37:41;;;;;;;38.03;19.55;;;14.90;99.90;;;;;;5119467;28;20040;-73
2022/10/14 09:40:12;;;;;;;52.42;23.35;;;14.90;99.90;;;;;;5119509;28;20039;-73
2022/10/14 09:43:09;;;;;;;46.30;20.60;;;14.90;99.90;;;;;;5119509;28;20081;-75
2022/10/14 09:45:57;;;;;;;50.28;21.88;;;14.90;99.90;;;;;;5101164;28;20039;-73
2022/10/14 09:48:44;;;;;;;52.47;23.00;;;14.90;99.90;;;;;;5119133;28;20420;-73
2022/10/14 09:51:29;;;;;;;51.80;23.50;;;15.00;99.90;;;;;;5119171;28;20097;-74
2022/10/14 09:53:58;;;;;;;43.22;19.83;;;15.00;99.90;;;;;;5101215;28;20338;-76
2022/10/14 09:56:33;;;;;;;43.45;22.45;;;14.90;99.90;;;;;;5119194;28;20038;-76
2022/10/14 09:59:00;;;;;;;43.75;21.17;;;14.90;99.90;;;;;;5118325;28;20032;-76
2022/10/14 10:01:41;;;;;;;41.28;21.55;;;15.00;99.90;;;;;;5100823;28;20078;-76
2022/10/14 10:04:30;;;;;;;38.90;20.50;;;15.00;99.90;;;;;;5119046;28;20042;-76
2022/10/14 10:06:56;;;;;;;42.83;20.42;;;15.00;99.90;;;;;;5085823;28;20336;-77
2022/10/14 10:09:22;;;;;;;37.80;20.30;;;15.10;99.90;;;;;;5118646;28;20051;-75
2022/10/14 10:11:48;;;;;;;42.08;20.63;;;15.10;99.90;;;;;;5100894;28;20130;-76
2022/10/14 10:14:21;;;;;;;37.75;19.40;;;15.10;99.90;;;;;;5100669;28;20043;-78
2022/10/14 10:17:11;;;;;;;48.28;22.98;;;15.10;99.90;;;;;;5100185;28;20048;-76
2022/10/14 10:19:37;;;;;;;42.53;20.85;;;15.20;99.90;;;;;;5100757;28;20036;-76
2022/10/14 10:22:18;;;;;;;42.25;20.40;;;15.20;99.90;;;;;;5100634;28;20490;-77
2022/10/14 10:24:44;;;;;;;37.38;18.70;;;15.20;99.90;;;;;;5100711;28;20168;-82
2022/10/14 10:27:24;;;;;;;43.85;20.40;;;15.20;99.90;;;;;;5083025;28;20051;-75
2022/10/14 10:29:49;;;;;;;47.53;21.02;;;15.10;99.90;;;;;;5118440;28;20055;-84
2022/10/14 10:32:30;;;;;;;39.17;20.23;;;15.10;99.90;;;;;;5100121;28;20044;-74
2022/10/14 10:35:24;;;;;;;38.22;18.67;;;14.80;99.90;;;;;;5100112;28;20048;-75
2022/10/14 10:37:55;;;;;;;47.70;20.42;;;14.80;99.90;;;;;;5118421;28;20035;-74
2022/10/14 10:40:31;;;;;;;51.28;21.33;;;14.90;99.90;;;;;;5100029;28;20081;-74
2022/10/14 10:43:19;;;;;;;43.55;19.75;;;15.00;99.90;;;;;;5100006;28;20046;-75
2022/10/14 10:46:08;;;;;;;60.70;21.70;;;15.20;99.90;;;;;;5118549;28;20043;-75
2022/10/14 10:48:56;;;;;;;49.40;20.98;;;15.30;99.90;;;;;;5100193;28;20047;-72
2022/10/14 10:51:36;;;;;;;53.95;20.55;;;15.40;99.90;;;;;;5118024;28;20043;-75
2022/10/14 10:54:14;;;;;;;38.05;17.58;;;15.50;99.90;;;;;;5118140;28;20102;-75
2022/10/14 10:56:58;;;;;;;44.15;18.27;;;15.30;99.90;;;;;;5116507;28;20047;-80
2022/10/14 10:59:45;;;;;;;46.10;17.95;;;15.30;99.90;;;;;;5108259;28;20063;-75
2022/10/14 11:02:48;;;;;;;35.47;15.70;;;15.20;99.90;;;;;;5084502;28;20105;-75
2022/10/14 11:05:45;;;;;;;38.83;16.63;;;15.20;99.90;;;;;;5103219;28;20036;-74
2022/10/14 11:14:10;;;;;;;;;;;15.30;99.90;;;;;;5118161;28;20050;-75
2022/10/14 11:16:50;;;;;;;36.22;14.05;;;15.30;99.90;;;;;;5099255;28;20324;-75
2022/10/14 11:19:26;;;;;;;28.42;13.02;;;15.20;99.90;;;;;;5097136;28;20048;-75
2022/10/14 11:22:19;;;;;;;46.05;15.60;;;15.20;99.90;;;;;;5097053;28;20311;-74
2022/10/14 11:25:03;;;;;;;29.05;12.60;;;15.40;99.90;;;;;;5097064;28;20123;-75
2022/10/14 11:27:45;;;;;;;41.88;14.90;;;15.30;99.90;;;;;;5110040;28;20424;-75
2022/10/14 11:30:31;;;;;;;45.30;15.80;;;15.40;99.90;;;;;;5117112;28;20486;-75
2022/10/14 11:33:25;;;;;;;32.15;13.73;;;15.30;99.90;;;;;;5099007;28;20059;-75
2022/10/14 11:35:59;;;;;;;42.70;14.32;;;15.30;99.90;;;;;;5117306;28;20100;-75
2022/10/14 11:38:43;;;;;;;34.33;13.60;;;15.30;99.90;;;;;;5098192;28;20332;-75
2022/10/14 11:41:08;;;;;;;31.73;13.30;;;15.30;99.90;;;;;;5108273;28;20040;-77
2022/10/14 11:43:42;;;;;;;26.70;12.43;;;15.40;99.90;;;;;;5097673;28;20039;-75
2022/10/14 11:46:12;;;;;;;26.20;12.80;;;15.40;99.90;;;;;;5112325;28;20036;-78
2022/10/14 11:48:40;;;;;;;42.38;15.32;;;15.40;99.90;;;;;;5117164;28;20097;-75
2022/10/14 11:51:18;;;;;;;34.65;14.68;;;15.40;99.90;;;;;;5116761;28;20081;-75
2022/10/14 11:54:02;;;;;;;29.15;12.88;;;15.40;99.90;;;;;;5117093;28;20040;-76
2022/10/14 11:56:51;;;;;;;41.47;14.88;;;15.50;99.90;;;;;;5116971;28;20040;-75
2022/10/14 11:59:27;;;;;;;24.55;12.35;;;15.50;99.90;;;;;;5099074;28;20509;-76
2022/10/14 12:01:58;;;;;;;28.08;13.25;;;15.50;99.90;;;;;;5116890;28;20122;-75
2022/10/14 12:04:32;;;;;;;39.75;15.38;;;15.60;99.90;;;;;;5116986;28;20035;-78
2022/10/14 12:07:21;;;;;;;28.73;12.23;;;15.60;99.90;;;;;;5098680;28;20130;-73
2022/10/14 12:09:50;;;;;;;31.77;13.85;;;15.40;99.90;;;;;;5116153;28;20051;-83
2022/10/14 12:12:20;;;;;;;34.35;14.82;;;15.30;99.90;;;;;;5117239;28;20047;-77
2022/10/14 12:14:59;;;;;;;39.90;15.90;;;15.30;99.90;;;;;;5116599;28;20039;-76
2022/10/14 12:17:46;;;;;;;26.00;12.18;;;15.40;99.90;;;;;;5116905;28;20131;-72
2022/10/14 12:20:48;;;;;;;27.42;13.27;;;15.20;99.90;;;;;;5118067;28;20364;-71
2022/10/14 12:23:43;;;;;;;26.55;12.75;;;15.30;99.90;;;;;;5086203;28;20151;-72
2022/10/14 12:26:21;;;;;;;25.33;12.55;;;15.10;99.90;;;;;;5115643;28;20051;-73
2022/10/14 12:28:48;;;;;;;28.83;13.77;;;15.30;99.90;;;;;;5120540;28;20035;-73
2022/10/14 12:31:21;;;;;;;26.63;13.13;;;15.20;99.90;;;;;;5102554;28;20057;-72
2022/10/14 12:34:26;;;;;;;25.55;13.30;;;15.30;99.90;;;;;;5120778;28;20039;-74
2022/10/14 12:36:52;;;;;;;37.35;14.73;;;15.60;99.90;;;;;;5052993;28;20044;-72
2022/10/14 12:39:18;;;;;;;44.42;15.85;;;15.60;99.90;;;;;;5102768;28;20360;-73
2022/10/14 12:42:08;;;;;;;34.35;15.38;;;15.60;99.90;;;;;;5120683;28;20069;-73
2022/10/14 12:44:41;;;;;;;39.33;15.90;;;15.50;99.90;;;;;;5102296;28;20085;-74
2022/10/14 12:47:27;;;;;;;32.25;15.13;;;15.50;99.90;;;;;;5120630;28;20058;-78
2022/10/14 12:49:56;;;;;;;29.25;13.82;;;15.60;99.90;;;;;;5080767;28;20130;-73
2022/10/14 12:52:46;;;;;;;36.05;14.85;;;15.70;99.90;;;;;;5101023;28;20046;-72
2022/10/14 12:55:22;;;;;;;44.70;16.50;;;15.60;99.90;;;;;;5093605;28;20043;-74
2022/10/14 12:57:53;;;;;;;31.60;14.93;;;15.60;99.90;;;;;;5081965;28;20159;-74